createdAt,value
2022-11-16T00:01:28.272Z,13.82
2022-11-16T00:03:56.474Z,13.45
2022-11-16T00:06:23.903Z,12.98
2022-11-16T00:09:12.567Z,13.90
2022-11-16T00:11:39.122Z,12.02
2022-11-16T00:14:06.668Z,13.77
2022-11-16T00:16:33.756Z,12.60
2022-11-16T00:19:03.334Z,11.85
2022-11-16T00:21:30.481Z,12.27
2022-11-16T00:23:57.085Z,11.57
2022-11-16T00:26:24.275Z,12.38
2022-11-16T00:28:52.676Z,12.13
2022-11-16T00:31:19.670Z,11.60
2022-11-16T00:33:47.771Z,12.52
2022-11-16T00:36:14.864Z,12.40
2022-11-16T00:38:41.936Z,14.00
2022-11-16T00:41:09.295Z,13.90
2022-11-16T00:43:36.507Z,15.48
2022-11-16T00:46:03.499Z,15.57
2022-11-16T00:48:30.215Z,15.30
2022-11-16T00:50:56.865Z,14.98
2022-11-16T00:53:23.404Z,14.38
2022-11-16T00:55:49.994Z,14.63
2022-11-16T00:58:16.671Z,14.40
2022-11-16T01:00:43.593Z,13.43
2022-11-16T01:03:10.571Z,14.18
2022-11-16T01:05:37.499Z,13.35
2022-11-16T01:08:04.263Z,12.70
2022-11-16T01:10:30.982Z,12.07
2022-11-16T01:12:57.506Z,14.00
2022-11-16T01:15:26.277Z,12.73
2022-11-16T01:17:54.224Z,12.70
2022-11-16T01:20:25.668Z,12.95
2022-11-16T01:22:52.479Z,12.48
2022-11-16T01:25:19.582Z,13.55
2022-11-16T01:27:46.106Z,13.80
2022-11-16T01:30:14.555Z,14.35
2022-11-16T01:32:41.125Z,14.90
2022-11-16T01:35:08.056Z,14.25
2022-11-16T01:37:34.917Z,14.05
2022-11-16T01:40:01.516Z,14.55
2022-11-16T01:42:30.025Z,14.32
2022-11-16T01:45:06.240Z,15.25
2022-11-16T01:47:33.143Z,14.50
2022-11-16T01:50:06.569Z,15.18
2022-11-16T01:52:35.537Z,14.35
2022-11-16T01:55:02.536Z,12.63
2022-11-16T01:57:36.011Z,12.90
2022-11-16T02:00:05.023Z,12.32
2022-11-16T02:02:31.523Z,10.82
2022-11-16T02:04:58.714Z,10.32
2022-11-16T02:07:25.193Z,9.57
2022-11-16T02:10:02.356Z,8.38
2022-11-16T02:12:56.791Z,7.63
2022-11-16T02:15:49.609Z,6.72
2022-11-16T02:18:25.284Z,6.32
2022-11-16T02:20:51.939Z,5.60
2022-11-16T02:23:33.363Z,5.35
2022-11-16T02:26:05.886Z,5.05
2022-11-16T02:29:00.277Z,4.78
2022-11-16T02:31:34.855Z,4.45
2022-11-16T02:34:01.944Z,5.13
2022-11-16T02:36:28.447Z,4.55
2022-11-16T02:38:58.301Z,4.63
2022-11-16T02:41:26.696Z,4.68
2022-11-16T02:44:00.929Z,4.68
2022-11-16T02:46:31.214Z,4.25
2022-11-16T02:49:00.946Z,4.40
2022-11-16T02:51:28.602Z,4.32
2022-11-16T02:54:03.089Z,4.85
2022-11-16T02:56:30.649Z,4.57
2022-11-16T02:58:58.821Z,4.40
2022-11-16T03:01:30.960Z,5.22
2022-11-16T03:04:03.139Z,4.63
2022-11-16T03:06:31.901Z,5.07
2022-11-16T03:09:05.185Z,4.57
2022-11-16T03:11:52.367Z,5.35
2022-11-16T03:14:20.815Z,4.72
2022-11-16T03:16:51.143Z,5.25
2022-11-16T03:19:22.882Z,5.03
2022-11-16T03:21:55.432Z,5.10
2022-11-16T03:24:21.981Z,5.30
2022-11-16T03:26:59.548Z,5.18
2022-11-16T03:29:44.890Z,6.13
2022-11-16T03:32:23.286Z,5.70
2022-11-16T03:35:23.200Z,5.80
2022-11-16T03:37:52.813Z,6.65
2022-11-16T03:40:20.201Z,6.43
2022-11-16T03:42:49.530Z,6.38
2022-11-16T03:45:17.114Z,6.68
2022-11-16T03:47:43.579Z,6.65
2022-11-16T03:50:10.605Z,6.95
2022-11-16T03:52:37.406Z,7.07
2022-11-16T03:55:05.072Z,7.00
2022-11-16T03:57:31.593Z,6.88
2022-11-16T03:59:58.189Z,6.97
2022-11-16T04:02:24.658Z,6.15
2022-11-16T04:05:10.007Z,5.85
2022-11-16T04:07:54.877Z,6.15
2022-11-16T04:10:39.975Z,6.53
2022-11-16T04:13:28.285Z,6.57
2022-11-16T04:16:13.137Z,6.13
2022-11-16T04:18:58.319Z,6.70
2022-11-16T04:21:55.942Z,7.22
2022-11-16T04:24:24.282Z,5.93
2022-11-16T04:27:13.358Z,6.30
2022-11-16T04:29:40.254Z,6.82
2022-11-16T04:32:25.773Z,5.95
2022-11-16T04:35:11.169Z,5.68
2022-11-16T04:37:49.633Z,6.10
2022-11-16T04:40:17.069Z,6.00
2022-11-16T04:42:43.539Z,5.70
2022-11-16T04:45:28.762Z,4.05
2022-11-16T04:47:55.287Z,4.38
2022-11-16T04:50:21.772Z,4.93
2022-11-16T04:52:48.295Z,4.20
2022-11-16T04:55:14.840Z,4.25
2022-11-16T04:57:41.387Z,4.45
2022-11-16T05:00:08.645Z,3.97
2022-11-16T05:02:35.232Z,4.05
2022-11-16T05:05:01.759Z,4.35
2022-11-16T05:07:28.328Z,3.40
2022-11-16T05:09:54.872Z,3.33
2022-11-16T05:12:23.826Z,4.13
2022-11-16T05:14:50.653Z,3.92
2022-11-16T05:17:17.936Z,3.88
2022-11-16T05:20:02.962Z,3.70
2022-11-16T05:22:29.555Z,3.03
2022-11-16T05:24:56.024Z,3.30
2022-11-16T05:27:23.613Z,3.80
2022-11-16T05:29:50.341Z,3.50
2022-11-16T05:32:18.082Z,3.08
2022-11-16T05:34:45.182Z,2.95
2022-11-16T05:37:11.781Z,3.15
2022-11-16T05:39:38.525Z,3.35
2022-11-16T05:42:06.926Z,2.22
2022-11-16T05:44:33.798Z,3.38
2022-11-16T05:47:00.546Z,3.38
2022-11-16T05:49:27.012Z,3.58
2022-11-16T05:51:53.722Z,2.90
2022-11-16T05:54:22.029Z,3.45
2022-11-16T05:56:49.316Z,3.25
2022-11-16T05:59:18.097Z,3.80
2022-11-16T06:01:44.650Z,4.40
2022-11-16T06:04:11.455Z,4.43
2022-11-16T06:06:38.422Z,4.82
2022-11-16T06:09:05.129Z,5.32
2022-11-16T06:11:35.747Z,5.13
2022-11-16T06:14:03.286Z,5.05
2022-11-16T06:16:30.195Z,5.13
2022-11-16T06:18:56.689Z,4.63
2022-11-16T06:21:23.302Z,6.13
2022-11-16T06:23:49.774Z,4.78
2022-11-16T06:26:16.296Z,4.50
2022-11-16T06:28:42.831Z,4.65
2022-11-16T06:31:09.374Z,4.32
2022-11-16T06:33:35.942Z,4.90
2022-11-16T06:36:02.526Z,4.70
2022-11-16T06:38:29.056Z,5.05
2022-11-16T06:40:57.845Z,4.15
2022-11-16T06:43:25.542Z,4.40
2022-11-16T06:45:54.925Z,4.18
2022-11-16T06:48:21.592Z,4.75
2022-11-16T06:50:49.886Z,4.60
2022-11-16T06:53:16.932Z,4.47
2022-11-16T06:55:43.539Z,4.70
2022-11-16T06:58:10.141Z,5.35
2022-11-16T07:00:36.657Z,4.30
2022-11-16T07:03:04.033Z,4.53
2022-11-16T07:05:31.822Z,4.15
2022-11-16T07:07:58.287Z,5.22
2022-11-16T07:10:25.184Z,4.38
2022-11-16T07:12:51.925Z,4.55
2022-11-16T07:15:19.536Z,3.92
2022-11-16T07:17:46.026Z,3.88
2022-11-16T07:20:12.548Z,4.40
2022-11-16T07:22:39.101Z,4.07
2022-11-16T07:25:06.053Z,3.80
2022-11-16T07:27:32.560Z,3.92
2022-11-16T07:29:59.231Z,4.80
2022-11-16T07:32:25.706Z,4.75
2022-11-16T07:34:52.174Z,4.07
2022-11-16T07:37:18.810Z,3.83
2022-11-16T07:39:45.734Z,4.05
2022-11-16T07:42:12.301Z,4.22
2022-11-16T07:44:39.294Z,4.22
2022-11-16T07:47:05.910Z,3.60
2022-11-16T07:49:32.550Z,3.45
2022-11-16T07:51:59.091Z,3.80
2022-11-16T07:54:25.584Z,4.20
2022-11-16T07:56:52.213Z,3.05
2022-11-16T07:59:18.695Z,3.63
2022-11-16T08:01:47.521Z,3.92
2022-11-16T08:04:15.443Z,3.25
2022-11-16T08:06:42.124Z,3.75
2022-11-16T08:09:09.382Z,4.07
2022-11-16T08:11:35.987Z,3.42
2022-11-16T08:14:02.494Z,3.55
2022-11-16T08:16:29.242Z,3.25
2022-11-16T08:18:55.849Z,3.28
2022-11-16T08:21:22.412Z,3.30
2022-11-16T08:23:51.551Z,2.95
2022-11-16T08:26:22.084Z,2.78
2022-11-16T08:28:51.210Z,3.22
2022-11-16T08:31:21.035Z,3.55
2022-11-16T08:33:48.074Z,3.42
2022-11-16T08:36:17.534Z,3.03
2022-11-16T08:38:45.502Z,2.75
2022-11-16T08:41:12.424Z,3.10
2022-11-16T08:43:42.255Z,2.95
2022-11-16T08:46:09.783Z,3.50
2022-11-16T08:48:37.469Z,3.40
2022-11-16T08:51:21.487Z,3.75
2022-11-16T08:53:49.526Z,3.90
2022-11-16T08:56:18.202Z,3.28
2022-11-16T08:58:46.957Z,3.33
2022-11-16T09:01:19.324Z,3.67
2022-11-16T09:03:46.458Z,3.30
2022-11-16T09:06:13.532Z,3.00
2022-11-16T09:08:41.792Z,3.25
2022-11-16T09:11:10.311Z,2.88
2022-11-16T09:13:36.953Z,3.10
2022-11-16T09:16:04.696Z,3.40
2022-11-16T09:18:31.662Z,3.33
2022-11-16T09:20:58.698Z,2.92
2022-11-16T09:23:25.831Z,3.75
2022-11-16T09:25:53.410Z,3.40
2022-11-16T09:28:20.809Z,3.55
2022-11-16T09:30:49.847Z,3.42
2022-11-16T09:33:16.498Z,3.00
2022-11-16T09:35:43.146Z,2.63
2022-11-16T09:38:10.003Z,3.63
2022-11-16T09:40:42.327Z,3.63
2022-11-16T09:43:27.597Z,2.80
2022-11-16T09:46:23.440Z,2.95
2022-11-16T09:48:50.491Z,2.90
2022-11-16T09:51:18.940Z,3.70
2022-11-16T09:53:58.621Z,3.22
2022-11-16T09:56:26.785Z,3.80
2022-11-16T09:59:02.725Z,3.55
2022-11-16T10:01:41.979Z,2.97
2022-11-16T10:04:15.536Z,3.00
2022-11-16T10:06:51.648Z,3.83
2022-11-16T10:09:18.575Z,3.78
2022-11-16T10:12:22.901Z,3.33
2022-11-16T10:14:52.367Z,3.33
2022-11-16T10:17:27.589Z,4.20
2022-11-16T10:22:36.089Z,3.63
2022-11-16T10:25:15.850Z,3.30
2022-11-16T10:28:04.397Z,3.47
2022-11-16T10:30:34.893Z,3.55
2022-11-16T10:33:10.930Z,3.25
2022-11-16T10:35:40.893Z,2.90
2022-11-16T10:38:17.067Z,2.97
2022-11-16T10:40:46.756Z,3.38
2022-11-16T10:43:14.355Z,3.75
2022-11-16T10:46:02.928Z,4.20
2022-11-16T10:48:37.388Z,4.00
2022-11-16T10:51:05.167Z,3.13
2022-11-16T10:53:36.058Z,3.53
2022-11-16T10:56:15.928Z,3.63
2022-11-16T10:58:50.609Z,4.40
2022-11-16T11:01:29.362Z,3.67
2022-11-16T11:03:55.883Z,4.43
2022-11-16T11:06:26.463Z,3.70
2022-11-16T11:08:52.963Z,3.85
2022-11-16T11:11:40.361Z,3.80
2022-11-16T11:14:12.510Z,3.83
2022-11-16T11:16:41.358Z,3.83
2022-11-16T11:19:18.727Z,3.95
2022-11-16T11:21:45.293Z,3.75
2022-11-16T11:24:43.216Z,3.33
2022-11-16T11:27:05.502Z,3.35
2022-11-16T11:29:35.091Z,3.70
2022-11-16T11:32:05.860Z,3.45
2022-11-16T11:34:39.293Z,3.60
2022-11-16T11:37:07.723Z,4.22
2022-11-16T11:39:36.607Z,4.35
2022-11-16T11:42:12.231Z,3.88
2022-11-16T11:44:49.955Z,3.83
2022-11-16T11:47:56.825Z,4.68
2022-11-16T11:50:38.950Z,3.97
2022-11-16T11:53:34.960Z,4.70
2022-11-16T11:56:01.758Z,4.65
2022-11-16T11:58:37.413Z,4.40
2022-11-16T12:01:25.994Z,5.10
2022-11-16T12:04:28.439Z,5.28
2022-11-16T12:07:13.962Z,4.88
2022-11-16T12:10:02.172Z,6.00
2022-11-16T12:12:37.700Z,6.13
2022-11-16T12:15:25.862Z,5.85
2022-11-16T12:18:11.024Z,6.07
2022-11-16T12:21:03.655Z,5.60
2022-11-16T12:23:50.497Z,5.53
2022-11-16T12:26:28.854Z,5.88
2022-11-16T12:29:15.271Z,5.80
2022-11-16T12:31:45.508Z,5.32
2022-11-16T12:34:24.608Z,5.55
2022-11-16T12:37:03.809Z,5.43
2022-11-16T12:39:35.702Z,5.18
2022-11-16T12:42:08.420Z,3.72
2022-11-16T12:44:56.103Z,4.18
2022-11-16T12:47:34.980Z,3.90
2022-11-16T12:50:46.163Z,4.80
2022-11-16T12:53:47.858Z,4.60
2022-11-16T12:56:47.532Z,4.30
2022-11-16T12:59:48.052Z,4.68
2022-11-16T13:02:33.026Z,4.80
2022-11-16T13:05:14.963Z,4.03
2022-11-16T13:07:44.811Z,3.53
2022-11-16T13:10:21.473Z,3.58
2022-11-16T13:12:55.806Z,3.90
2022-11-16T13:15:37.160Z,4.05
2022-11-16T13:18:06.479Z,3.70
2022-11-16T13:20:32.943Z,3.60
2022-11-16T13:23:32.846Z,3.65
2022-11-16T13:26:10.453Z,3.20
2022-11-16T13:28:37.150Z,2.92
2022-11-16T13:31:19.405Z,3.83
2022-11-16T13:33:51.337Z,3.72
2022-11-16T13:36:39.783Z,3.35
2022-11-16T13:39:08.007Z,3.80
2022-11-16T13:41:39.054Z,3.13
2022-11-16T13:44:22.010Z,3.00
2022-11-16T13:46:56.351Z,2.67
2022-11-16T13:49:52.587Z,3.72
2022-11-16T13:52:24.079Z,3.20
2022-11-16T13:54:54.986Z,2.83
2022-11-16T13:57:27.672Z,3.08
2022-11-16T14:00:20.903Z,3.25
2022-11-16T14:02:47.569Z,2.80
2022-11-16T14:05:18.687Z,3.33
2022-11-16T14:07:49.877Z,2.88
2022-11-16T14:10:34.723Z,2.92
2022-11-16T14:13:05.161Z,3.38
2022-11-16T14:15:38.669Z,3.40
2022-11-16T14:18:08.664Z,2.50
2022-11-16T14:20:38.424Z,2.88
2022-11-16T14:23:16.829Z,3.47
2022-11-16T14:26:08.323Z,3.00
2022-11-16T14:28:45.300Z,2.95
2022-11-16T14:31:33.989Z,2.92
2022-11-16T14:34:00.880Z,3.13
2022-11-16T14:36:44.789Z,3.00
2022-11-16T14:39:25.231Z,2.95
2022-11-16T14:41:51.916Z,3.22
2022-11-16T14:44:22.753Z,3.65
2022-11-16T14:46:49.311Z,3.08
2022-11-16T14:49:17.235Z,2.92
2022-11-16T14:51:50.193Z,3.60
2022-11-16T14:54:35.435Z,3.00
2022-11-16T14:57:05.008Z,2.83
2022-11-16T14:59:31.912Z,3.30
2022-11-16T15:02:01.649Z,2.72
2022-11-16T15:04:28.166Z,2.75
2022-11-16T15:07:03.971Z,4.05
2022-11-16T15:09:42.006Z,3.78
2022-11-16T15:12:35.892Z,2.70
2022-11-16T15:15:15.209Z,2.78
2022-11-16T15:18:01.880Z,3.00
2022-11-16T15:20:30.598Z,3.33
2022-11-16T15:22:58.604Z,2.90
2022-11-16T15:25:25.105Z,2.65
2022-11-16T15:27:52.120Z,4.20
2022-11-16T15:30:22.261Z,2.97
2022-11-16T15:32:50.289Z,2.92
2022-11-16T15:35:31.372Z,3.75
2022-11-16T15:38:17.244Z,3.30
2022-11-16T15:40:52.746Z,2.67
2022-11-16T15:43:21.629Z,2.53
2022-11-16T15:45:48.497Z,3.25
2022-11-16T15:48:21.249Z,4.32
2022-11-16T15:51:04.210Z,3.03
2022-11-16T15:53:36.292Z,3.00
2022-11-16T15:56:05.114Z,4.10
2022-11-16T15:58:32.655Z,3.00
2022-11-16T16:00:59.815Z,3.30
2022-11-16T16:03:27.642Z,3.58
2022-11-16T16:05:55.181Z,3.53
2022-11-16T16:08:34.417Z,3.53
2022-11-16T16:11:11.141Z,3.50
2022-11-16T16:13:45.296Z,3.67
2022-11-16T16:16:29.369Z,3.78
2022-11-16T16:18:59.079Z,4.28
2022-11-16T16:21:26.638Z,4.05
2022-11-16T16:23:54.872Z,3.67
2022-11-16T16:26:22.824Z,4.50
2022-11-16T16:28:50.209Z,4.47
2022-11-16T16:31:18.567Z,4.28
2022-11-16T16:33:45.072Z,5.07
2022-11-16T16:36:13.857Z,4.00
2022-11-16T16:38:40.356Z,3.95
2022-11-16T16:41:07.356Z,4.80
2022-11-16T16:43:34.159Z,4.18
2022-11-16T16:46:02.058Z,4.68
2022-11-16T16:48:28.633Z,4.13
2022-11-16T16:50:55.279Z,4.47
2022-11-16T16:53:21.759Z,4.10
2022-11-16T16:55:48.925Z,4.72
2022-11-16T16:58:15.630Z,3.90
2022-11-16T17:00:42.596Z,3.63
2022-11-16T17:03:09.302Z,4.32
2022-11-16T17:05:35.779Z,5.18
2022-11-16T17:08:02.271Z,5.35
2022-11-16T17:10:28.789Z,4.93
2022-11-16T17:12:56.309Z,5.20
2022-11-16T17:15:23.571Z,5.22
2022-11-16T17:17:50.381Z,4.45
2022-11-16T17:20:17.291Z,4.68
2022-11-16T17:22:43.867Z,4.32
2022-11-16T17:25:10.575Z,3.97
2022-11-16T17:27:37.119Z,5.43
2022-11-16T17:30:04.355Z,4.25
2022-11-16T17:32:30.999Z,4.80
2022-11-16T17:34:57.476Z,5.20
2022-11-16T17:37:24.205Z,4.50
2022-11-16T17:39:50.718Z,4.50
2022-11-16T17:42:17.179Z,4.25
2022-11-16T17:44:43.723Z,4.35
2022-11-16T17:47:10.442Z,4.55
2022-11-16T17:49:36.908Z,5.43
2022-11-16T17:52:04.875Z,4.25
2022-11-16T17:54:31.492Z,4.35
2022-11-16T17:56:58.053Z,4.55
2022-11-16T17:59:29.258Z,4.50
2022-11-16T18:01:57.994Z,4.53
2022-11-16T18:04:25.123Z,4.05
2022-11-16T18:06:51.719Z,4.70
2022-11-16T18:09:18.814Z,4.85
2022-11-16T18:11:45.425Z,4.78
2022-11-16T18:14:11.904Z,4.95
2022-11-16T18:16:41.076Z,5.15
2022-11-16T18:19:07.664Z,4.57
2022-11-16T18:21:41.508Z,4.57
2022-11-16T18:24:09.409Z,4.55
2022-11-16T18:26:36.239Z,5.32
2022-11-16T18:29:03.073Z,5.43
2022-11-16T18:31:30.158Z,4.80
2022-11-16T18:33:56.687Z,5.60
2022-11-16T18:36:23.304Z,4.88
2022-11-16T18:38:50.091Z,4.57
2022-11-16T18:41:19.768Z,4.88
2022-11-16T18:43:54.732Z,4.90
2022-11-16T18:46:26.697Z,5.45
2022-11-16T18:48:53.947Z,5.25
2022-11-16T18:51:21.628Z,4.95
2022-11-16T18:53:48.285Z,4.97
2022-11-16T18:56:15.209Z,5.03
2022-11-16T18:58:51.262Z,5.60
2022-11-16T19:01:20.722Z,5.28
2022-11-16T19:03:47.307Z,5.38
2022-11-16T19:06:15.603Z,5.70
2022-11-16T19:08:43.890Z,5.70
2022-11-16T19:11:16.858Z,5.85
2022-11-16T19:13:44.413Z,4.95
2022-11-16T19:16:12.770Z,4.47
2022-11-16T19:18:39.461Z,6.30
2022-11-16T19:21:07.999Z,4.90
2022-11-16T19:23:39.033Z,4.75
2022-11-16T19:26:06.229Z,5.05
2022-11-16T19:28:37.188Z,5.10
2022-11-16T19:31:28.811Z,5.45
2022-11-16T19:34:06.535Z,5.80
2022-11-16T19:36:34.563Z,5.60
2022-11-16T19:39:01.334Z,4.72
2022-11-16T19:41:28.376Z,4.85
2022-11-16T19:43:58.941Z,5.15
2022-11-16T19:46:27.341Z,5.90
2022-11-16T19:48:54.976Z,5.15
2022-11-16T19:51:23.857Z,4.32
2022-11-16T19:53:50.371Z,4.68
2022-11-16T19:56:18.868Z,4.47
2022-11-16T19:58:45.769Z,4.50
2022-11-16T20:01:14.878Z,4.60
2022-11-16T20:03:42.194Z,4.47
2022-11-16T20:06:22.375Z,4.60
2022-11-16T20:09:04.138Z,4.40
2022-11-16T20:11:33.701Z,4.50
2022-11-16T20:14:00.330Z,4.32
2022-11-16T20:16:32.687Z,3.40
2022-11-16T20:19:02.528Z,3.40
2022-11-16T20:21:33.025Z,3.67
2022-11-16T20:24:06.133Z,3.92
2022-11-16T20:26:34.142Z,3.97
2022-11-16T20:29:00.673Z,4.20
2022-11-16T20:31:29.083Z,3.88
2022-11-16T20:34:05.961Z,4.70
2022-11-16T20:36:33.386Z,3.40
2022-11-16T20:39:00.508Z,4.07
2022-11-16T20:41:29.583Z,3.95
2022-11-16T20:43:57.680Z,4.03
2022-11-16T20:46:26.023Z,3.70
2022-11-16T20:48:52.706Z,4.75
2022-11-16T20:51:20.549Z,3.00
2022-11-16T20:53:48.380Z,3.95
2022-11-16T20:56:15.890Z,4.45
2022-11-16T20:58:42.450Z,3.88
2022-11-16T21:01:15.029Z,4.20
2022-11-16T21:03:42.524Z,3.45
2022-11-16T21:06:09.008Z,3.55
2022-11-16T21:08:36.802Z,3.40
2022-11-16T21:11:10.118Z,3.53
2022-11-16T21:13:55.031Z,3.80
2022-11-16T21:16:21.527Z,3.70
2022-11-16T21:18:48.000Z,3.63
2022-11-16T21:21:14.813Z,3.60
2022-11-16T21:23:51.476Z,4.00
2022-11-16T21:26:23.039Z,4.07
2022-11-16T21:28:49.609Z,3.58
2022-11-16T21:31:18.355Z,4.57
2022-11-16T21:33:45.926Z,3.72
2022-11-16T21:36:14.355Z,4.32
2022-11-16T21:38:41.041Z,3.75
2022-11-16T21:41:08.694Z,4.45
2022-11-16T21:43:38.318Z,3.83
2022-11-16T21:46:07.318Z,4.80
2022-11-16T21:48:34.671Z,4.78
2022-11-16T21:51:02.791Z,4.28
2022-11-16T21:53:29.502Z,4.13
2022-11-16T21:55:56.129Z,4.10
2022-11-16T21:58:22.619Z,4.55
2022-11-16T22:00:49.180Z,4.20
2022-11-16T22:03:15.942Z,4.13
2022-11-16T22:06:00.746Z,5.10
2022-11-16T22:08:27.232Z,4.03
2022-11-16T22:10:53.758Z,4.38
2022-11-16T22:13:20.310Z,4.70
2022-11-16T22:15:46.841Z,4.32
2022-11-16T22:18:13.550Z,4.38
2022-11-16T22:20:40.341Z,4.80
2022-11-16T22:23:06.806Z,4.65
2022-11-16T22:25:33.574Z,4.07
2022-11-16T22:28:20.620Z,4.55
2022-11-16T22:30:51.375Z,4.18
2022-11-16T22:33:18.612Z,4.88
2022-11-16T22:35:46.813Z,5.05
2022-11-16T22:38:13.294Z,4.97
2022-11-16T22:40:39.741Z,4.32
2022-11-16T22:43:06.277Z,5.30
2022-11-16T22:45:32.795Z,5.28
2022-11-16T22:47:59.288Z,5.07
2022-11-16T22:50:25.842Z,4.30
2022-11-16T22:52:52.361Z,4.00
2022-11-16T22:55:18.983Z,4.32
2022-11-16T22:57:45.468Z,4.47
2022-11-16T23:00:12.713Z,5.38
2022-11-16T23:02:39.194Z,4.35
2022-11-16T23:05:06.150Z,4.28
2022-11-16T23:07:32.903Z,4.75
2022-11-16T23:09:59.414Z,5.00
2022-11-16T23:12:44.222Z,4.53
2022-11-16T23:15:33.018Z,4.50
2022-11-16T23:17:59.540Z,4.65
2022-11-16T23:20:44.454Z,4.80
2022-11-16T23:23:36.763Z,4.45
2022-11-16T23:26:24.276Z,4.70
2022-11-16T23:28:50.782Z,4.45
2022-11-16T23:31:17.250Z,4.65
2022-11-16T23:33:43.926Z,5.13
2022-11-16T23:36:12.190Z,5.15
2022-11-16T23:38:39.336Z,4.72
2022-11-16T23:41:25.180Z,4.78
2022-11-16T23:44:00.669Z,4.70
2022-11-16T23:46:32.009Z,5.47
2022-11-16T23:48:58.898Z,4.95
2022-11-16T23:51:25.350Z,5.53
2022-11-16T23:53:52.776Z,5.40
2022-11-16T23:56:20.415Z,5.75
2022-11-16T23:58:47.064Z,5.15
